Latest Coastal Weather Observations for Pirlangimpi (Garden Point)

IDD60701

Issued at 6:15 pm CST Saturday 25 October 2014 (issued every 10 minutes, with the page automatically refreshed every 10 minutes)

About coastal observations | Map of coastal stations | Coastal observations for NT | Marine services | Other Formats
Station Details ID: 014142 Name: PIRLANGIMPI AIRPORT Lat: -11.40 Lon: 130.42 Height: 18.3 m
Data from the previous 72 hours. | See also: Recent months at Pirlangimpi (Garden Point)
Date/Time
CST
Temp

°C
Wind Pressure Rain
since 9am
mm
Weather Cloud Vis
km
Sea
Height
m
Swell
Dir
 
Speed
knots
Gust
knots
hPa Trend Height
m
Period
s
Dir
25/06:00pm 29.4 NNE 4 7 1011.6 - 0.0 - - - - - - -
25/05:30pm 30.9 N 4 8 1011.4 - 0.0 - - - - - - -
25/05:00pm 31.2 NNE 5 8 1011.2 - 0.0 - - - - - - -
25/04:30pm 32.9 N 6 12 1011.2 - 0.0 - - - - - - -
25/04:00pm 33.2 NNE 5 12 1011.4 - 0.0 - - - - - - -
25/03:30pm 33.6 N 5 10 1011.5 - 0.0 - - - - - - -
25/03:00pm 34.9 NNE 6 12 1011.4 - 0.0 - - - - - - -
25/02:30pm 33.8 N 4 8 1011.8 - 0.0 - - - - - - -
25/02:00pm 33.5 NE 4 12 1012.1 - 0.0 - - - - - - -
25/01:30pm 34.2 NNE 3 7 1012.3 - 0.0 - - - - - - -
25/01:00pm 35.8 SE 5 9 1012.7 - 0.0 - - - - - - -
25/12:30pm 34.9 ESE 6 11 1013.1 - 0.0 - - - - - - -
25/12:00pm 34.6 NE 5 11 1013.7 - 0.0 - - - - - - -
25/11:30am 34.3 ENE 4 9 1014.0 - 0.0 - - - - - - -
25/11:00am 34.0 E 7 14 1014.3 - 0.0 - - - - - - -
25/10:30am 32.4 ENE 8 13 1014.8 - 0.0 - - - - - - -
25/10:00am 32.2 E 7 11 1015.1 - 0.0 - - - - - - -
25/09:30am 31.2 ENE 7 12 1015.4 - 0.0 - - - - - - -
25/09:00am 30.0 E 6 12 1015.6 - 0.0 - - - - - - -
25/08:30am 29.1 E 3 9 1015.4 - 0.0 - - - - - - -
25/08:00am 27.0 SSE 2 4 1015.4 - 0.0 - - - - - - -
25/07:30am 25.4 SE 2 3 1015.3 - 0.0 - - - - - - -
25/07:00am 23.3 ESE 1 2 1014.7 - 0.0 - - - - - - -
25/06:30am 22.3 CALM 0 0 1014.5 - 0.0 - - - - - - -
25/06:00am 22.6 ENE 2 2 1013.9 - 0.0 - - - - - - -
25/05:30am 23.1 SE 2 3 1013.7 - 0.0 - - - - - - -
25/05:00am 23.4 ESE 2 4 1013.5 - 0.0 - - - - - - -
25/04:30am 23.3 SE 2 3 1013.3 - 0.0 - - - - - - -
25/04:00am 22.6 SSE 2 3 1013.1 - 0.0 - - - - - - -
25/03:30am 22.6 CALM 0 1 1012.5 - 0.0 - - - - - - -
25/03:00am 22.8 CALM 0 0 1012.6 - 0.0 - - - - - - -
25/02:30am 22.9 CALM 0 0 1012.5 - 0.0 - - - - - - -
25/02:00am 22.8 NE 1 2 1012.7 - 0.0 - - - - - - -
25/01:30am 23.1 CALM 0 0 1012.9 - 0.0 - - - - - - -
25/01:00am 23.5 CALM 0 0 1013.2 - 0.0 - - - - - - -
25/12:30am 23.9 N 1 2 1013.4 - 0.0 - - - - - - -
25/12:00am 24.5 NNE 0 0 1013.5 - 0.0 - - - - - - -
 
Date/Time
CST
Temp

°C
Wind Pressure Rain
since 9am
mm
Weather Cloud Vis
km
Sea
Height
m
Swell
Dir
 
Speed
knots
Gust
knots
hPa Trend Height
m
Period
s
Dir
24/11:30pm 24.8 CALM 0 2 1013.7 - 0.0 - - - - - - -
24/11:00pm 25.1 CALM 0 0 1013.7 - 0.0 - - - - - - -
24/10:30pm 25.5 NE 1 3 1013.7 - 0.0 - - - - - - -
24/10:00pm 25.6 NNE 1 3 1013.3 - 0.0 - - - - - - -
24/09:30pm 25.2 N 1 2 1013.0 - 0.0 - - - - - - -
24/09:00pm 25.6 CALM 0 0 1012.6 - 0.0 - - - - - - -
24/08:30pm 26.2 N 1 2 1012.1 - 0.0 - - - - - - -
24/08:00pm 26.9 NNW 1 2 1011.6 - 0.0 - - - - - - -
24/07:30pm 27.7 NNE 3 6 1011.2 - 0.0 - - - - - - -
24/07:00pm 28.0 NE 3 8 1010.7 - 0.0 - - - - - - -
24/06:30pm 28.8 NE 6 12 1010.3 - 0.0 - - - - - - -
24/06:00pm 29.6 NE 7 14 1010.2 - 0.0 - - - - - - -
24/05:30pm 31.4 NE 9 15 1010.0 - 0.0 - - - - - - -
24/05:00pm 31.7 NE 10 17 1009.9 - 0.0 - - - - - - -
24/04:30pm 32.5 NE 10 18 1009.9 - 0.0 - - - - - - -
24/04:00pm 34.0 NE 11 20 1010.0 - 0.0 - - - - - - -
24/03:30pm 34.0 NE 9 15 1010.0 - 0.0 - - - - - - -
24/03:00pm 34.2 NNE 7 14 1010.1 - 0.0 - - - - - - -
24/02:30pm 35.3 NNE 6 14 1010.2 - 0.0 - - - - - - -
24/02:00pm 36.1 NE 8 16 1010.5 - 0.0 - - - - - - -
24/01:30pm 35.7 NE 8 13 1010.8 - 0.0 - - - - - - -
24/01:00pm 35.7 E 7 13 1011.4 - 0.0 - - - - - - -
24/12:30pm 35.8 E 7 14 1011.9 - 0.0 - - - - - - -
24/12:00pm 34.8 ENE 6 12 1012.4 - 0.0 - - - - - - -
24/11:30am 33.3 E 10 18 1013.0 - 0.0 - - - - - - -
24/11:00am 33.5 E 8 13 1013.3 - 0.0 - - - - - - -
24/10:30am 32.8 E 9 13 1013.7 - 0.0 - - - - - - -
24/10:00am 32.5 E 7 10 1013.9 - 0.0 - - - - - - -
24/09:30am 31.7 E 5 7 1014.1 - 0.0 - - - - - - -
24/09:00am 30.2 E 3 6 1014.3 - 0.0 - - - - - - -
24/08:30am 29.1 E 2 6 1014.3 - 0.0 - - - - - - -
24/08:00am 27.3 SE 3 3 1014.2 - 0.0 - - - - - - -
24/07:30am 25.0 CALM 0 0 1013.8 - 0.0 - - - - - - -
24/07:00am 22.7 CALM 0 0 1013.5 - 0.0 - - - - - - -
24/06:30am 22.2 ENE 1 2 1013.5 - 0.0 - - - - - - -
24/06:00am 22.2 CALM 0 0 1013.3 - 0.0 - - - - - - -
24/05:30am 22.4 ENE 1 2 1013.1 - 0.0 - - - - - - -
24/05:00am 22.6 E 2 3 1013.0 - 0.0 - - - - - - -
24/04:30am 22.5 ESE 2 2 1012.9 - 0.0 - - - - - - -
24/04:00am 22.6 CALM 0 0 1012.6 - 0.0 - - - - - - -
24/03:30am 22.6 CALM 0 0 1012.5 - 0.0 - - - - - - -
24/03:00am 22.8 ENE 1 2 1012.7 - 0.0 - - - - - - -
24/02:30am 22.8 NE 1 2 1012.8 - 0.0 - - - - - - -
24/02:00am 22.9 CALM 0 0 1013.1 - 0.0 - - - - - - -
24/01:30am 23.2 ENE 2 2 1013.3 - 0.0 - - - - - - -
24/01:00am 23.4 CALM 0 0 1013.5 - 0.0 - - - - - - -
24/12:30am 23.5 CALM 0 0 1013.8 - 0.0 - - - - - - -
24/12:00am 23.8 CALM 0 0 1013.9 - 0.0 - - - - - - -
 
Date/Time
CST
Temp

°C
Wind Pressure Rain
since 9am
mm
Weather Cloud Vis
km
Sea
Height
m
Swell
Dir
 
Speed
knots
Gust
knots
hPa Trend Height
m
Period
s
Dir
23/11:30pm 24.0 CALM 0 0 1013.9 - 0.0 - - - - - - -
23/11:00pm 24.2 CALM 0 0 1014.1 - 0.0 - - - - - - -
23/10:30pm 24.5 CALM 0 0 1013.9 - 0.0 - - - - - - -
23/10:00pm 24.8 CALM 0 0 1013.6 - 0.0 - - - - - - -
23/09:30pm 25.1 CALM 0 0 1013.0 - 0.0 - - - - - - -
23/09:00pm 25.5 CALM 0 0 1012.7 - 0.0 - - - - - - -
23/08:30pm 25.9 CALM 0 0 1012.3 - 0.0 - - - - - - -
23/08:00pm 26.7 CALM 0 1 1011.9 - 0.0 - - - - - - -
23/07:30pm 27.1 NNE 3 5 1011.4 - 0.0 - - - - - - -
23/07:00pm 27.6 NNE 3 7 1011.0 - 0.0 - - - - - - -
23/06:30pm 28.5 NNE 4 7 1010.9 - 0.0 - - - - - - -
23/06:00pm 29.5 NE 6 11 1010.5 - 0.0 - - - - - - -
23/05:30pm 31.4 NE 6 10 1010.2 - 0.0 - - - - - - -
23/05:00pm 32.9 NNE 5 10 1009.8 - 0.0 - - - - - - -
23/04:30pm 34.0 NNE 6 11 1009.8 - 0.0 - - - - - - -
23/04:00pm 35.0 NNE 6 10 1009.8 - 0.0 - - - - - - -
23/03:30pm 34.9 NNE 6 13 1009.8 - 0.0 - - - - - - -
23/03:00pm 34.5 NE 6 11 1009.9 - 0.0 - - - - - - -
23/02:30pm 35.9 NNE 6 13 1010.2 - 0.0 - - - - - - -
23/02:00pm 35.8 NE 7 14 1010.4 - 0.0 - - - - - - -
23/01:30pm 35.9 ENE 6 13 1011.1 - 0.0 - - - - - - -
23/01:00pm 35.7 ENE 6 12 1011.7 - 0.0 - - - - - - -
23/12:30pm 34.8 E 6 12 1012.2 - 0.0 - - - - - - -
23/12:00pm 35.1 E 8 15 1012.7 - 0.0 - - - - - - -
23/11:30am 34.5 ENE 6 13 1013.1 - 0.0 - - - - - - -
23/11:00am 33.8 ENE 6 12 1013.4 - 0.0 - - - - - - -
23/10:30am 32.9 NE 7 12 1013.8 - 0.0 - - - - - - -
23/10:00am 32.1 ENE 8 14 1014.1 - 0.0 - - - - - - -
23/09:30am 31.2 E 7 13 1014.4 - 0.0 - - - - - - -
23/09:00am 30.1 E 5 9 1014.3 - 2.2 - - - - - - -
23/08:30am 28.7 E 5 8 1014.5 - 2.2 - - - - - - -
23/08:00am 27.3 E 4 6 1014.3 - 2.2 - - - - - - -
23/07:30am 25.6 ESE 2 3 1014.0 - 2.2 - - - - - - -
23/07:00am 23.0 CALM 0 0 1013.5 - 2.2 - - - - - - -
23/06:30am 22.4 CALM 0 0 1013.3 - 2.2 - - - - - - -
23/06:00am 22.3 CALM 0 0 1013.1 - 2.2 - - - - - - -
23/05:30am 22.6 CALM 0 0 1013.0 - 2.2 - - - - - - -
23/05:00am 22.9 CALM 0 0 1012.6 - 2.2 - - - - - - -
23/04:30am 23.1 NE 2 2 1012.3 - 2.2 - - - - - - -
23/04:00am 23.2 ENE 1 2 1012.2 - 2.2 - - - - - - -
23/03:30am 23.4 CALM 0 0 1012.2 - 2.2 - - - - - - -
23/03:00am 23.7 NE 1 2 1012.2 - 2.2 - - - - - - -
23/02:30am 24.1 NNE 2 2 1012.5 - 2.2 - - - - - - -
23/02:00am 24.0 CALM 0 0 1013.1 - 2.2 - - - - - - -
23/01:30am 24.1 CALM 0 0 1013.1 - 2.2 - - - - - - -
23/01:00am 24.1 ENE 1 3 1013.3 - 2.2 - - - - - - -
23/12:30am 24.5 NE 1 2 1013.4 - 2.2 - - - - - - -
23/12:00am 24.7 NE 2 3 1013.7 - 2.2 - - - - - - -
 
Date/Time
CST
Temp

°C
Wind Pressure Rain
since 9am
mm
Weather Cloud Vis
km
Sea
Height
m
Swell
Dir
 
Speed
knots
Gust
knots
hPa Trend Height
m
Period
s
Dir
22/11:30pm 24.6 NNE 1 2 1013.9 - 2.2 - - - - - - -
22/11:00pm 24.6 N 1 2 1013.8 - 2.2 - - - - - - -
22/10:30pm 25.3 CALM 0 1 1013.9 - 2.2 - - - - - - -
22/10:00pm 25.9 CALM 0 1 1013.7 - 2.2 - - - - - - -
22/09:30pm 26.1 N 1 2 1013.4 - 2.2 - - - - - - -
22/09:00pm 26.2 CALM 0 0 1013.2 - 2.2 - - - - - - -
22/08:30pm 25.9 CALM 0 0 1012.7 - 2.2 - - - - - - -
22/08:00pm 25.9 N 1 2 1012.5 - 2.2 - - - - - - -
22/07:30pm 26.5 N 1 2 1012.0 - 2.2 - - - - - - -
22/07:00pm 27.2 N 2 6 1011.6 - 2.2 - - - - - - -
22/06:30pm 27.9 NNE 2 4 1011.3 - 2.2 - - - - - - -

Other Formats:

Comma delimited format used in spreadsheet applications
http://www.bom.gov.au/fwo/IDD60701/IDD60701.94119.axf

JavaScript Object Notation format (JSON) in row-major order
http://www.bom.gov.au/fwo/IDD60701/IDD60701.94119.json